Westhoff, Texas
Current Conditions -  °F | °C
As of 8:51 AM on Saturday 20 Dec 2014 (Local Time) from KVCT Reporting Station
Overcast Overcast  
Wind Chill: 52°   Ceiling: 1000
Heat Index: 52°   Visibility: 10mi
Dew Point: 48°   Wind: 9mph
Humidity: 86%   Direction: 340°NNW
Pressure: 30.22"   Gusts: NA
Location:  29.2°N, 97.47°W
Report Text: KVCT 201451Z 34008KT 10SM OVC010 11/09 A3022 RMK AO2 SLP231 T01110089 51013 $
Loading
Personal Weather Stations






























Interactive Weather Map New forecast layout! Learn more

10-Day Weather Forecast

Advertisements
Track Severe Weather on mobile